Pagrindinis puslapis
METAR-TAF:

METAR-TAF

Oro uostai :

Beirutas, Libanas

platuma: 33-49N, ilguma: 035-29E, Aukštis: 29 m

Dabartinis oras

Ataskaita buvo paskelbta 35 minutes, ne 04:00 UTC
Vėjas 3 kt iš Pietryčių
Temperatūra 24°C
Drėgmė 83%
Slėgis 1010 hPa
Matomumas: 8000 m

METAR: OLBA 250400Z 13003KT 8000 NSC 24/21 Q1010 NOSIG

Laikas: 07:35 (04:35 UTC)

Prognozė

Ataskaita buvo paskelbta 6 valandos ir 35 minutes, ne 22:00 UTC
Prognozė galioja nuo 25 metu 00 UTC su 26 metu 06 UTC
Vėjas 8 kt iš Pietryčių
Matomumas: 8000 m
Mažai debesys ne aukštis 3000 ft
Tapsmas
nuo 25 metu 06 UTC su 25 metu 09 UTC
Vėjas 8 kt iš Pietvakarių
Laikinai
nuo 25 metu 06 UTC su 25 metu 18 UTC
Matomumas: 5000 m
Išsisklaidę debesys ne aukštis 2600 ft
rūkana
Tapsmas
nuo 25 metu 18 UTC su 25 metu 21 UTC
Vėjas 8 kt iš Pietų/Pietryčių
Tapsmas
nuo 26 metu 00 UTC su 26 metu 03 UTC
Vėjas 6 kt iš Rytų

TAF: OLBA 242200Z 2500/2606 14008KT 8000 FEW030 BECMG 2506/2509 22008KT TEMPO 2506/2518 5000 BR SCT026 BECMG 2518/2521 16008KT BECMG 2600/2603 10006KT

Orai ataskaitas ir orų prognozės (METAR, TAF).

turimą stotys yra geltonos ir raudonos taškus žemėlapyje.

Perkelti pele per norėdami pamatyti stoties vardą.

Tada spustelėkite, norėdami matyti oro stebėjimo ir prognozės.

Norėdami pakeisti žemėlapį: spustelėkite ant žalios mygtukų su juodo kryžiaus žemyn,; žalią mygtuką su brūkšneliu, jei norite nutolinti; arba žalių rodyklių gretimoms žemėlapius.


METAR-TAF: